Sun Valley, CA

07:25 PM PST am 21. Dezember 2014 (GMT -0800)
Burbank-Glendale-Pasadena | Change Station
CLOSE
Current Station
Flughafen
Location: Burbank,
Höhe: 774 ft
Wetterstationen in der Umgebung
aktive Warnung: Wind Advisory aktiver Hinweis: Public Information Statement

Höhe 774 ft 34.20 °N, 118.36 °W | Updated 32 minutes ago

Heiter
Heiter
62 °F
gefühlte 62 °F
N
0
Wind Wechselnd Wind aus Nord

Heute
Max. -- | schwach -- °F
--% Regenrisiko
Gestern
Max. -- | schwach -- °F
Precip. -- inch
6:55 AM 4:47 PM
Neumond, 0% visible
Druck 30.02 inch
Sichtweite 8.0 Meilen
Wolken Heiter
Taupunkt 50 °F
Feuchtigkeit 65%
Regen 0.00 inch
Schneehöhe Nicht verfügbar..
UV 0 von 12
Pollen 4.40 von 12
Luftqualität Nicht verfügbar..
Flu Activity Nicht verfügbar..
METAR KBUR 220253Z 00000KT 8SM CLR 17/10 A3004 RMK AO2 SLP165 T01670100 55001

More Conditions Fewer Conditions

Druck 30.02 inch
Sichtweite 8.0 Meilen
Wolken Heiter
Taupunkt 50 °F
Feuchtigkeit 65%
Regen 0.00 inch
Schneehöhe Nicht verfügbar..
UV 0 von 12
Pollen 4.40 von 12
Luftqualität Nicht verfügbar..
Flu Activity Nicht verfügbar..
METAR KBUR 220253Z 00000KT 8SM CLR 17/10 A3004 RMK AO2 SLP165 T01670100 55001

More Conditions Fewer Conditions

10-Day Weather Forecast

Almanac

Astronomie

Dec. 21, 2014 Aufgang Untergang
Genaue Zeit
Bürgerliche Dämmerung
Nautische Dämmerung
Astronomische Dämmerung
Mond
Länge des sichtbaren Lichts
Tageslänge
Tomorrow will be .
, % of the Moon is Illuminated

Heutige Rekorde

State Highs State Lows

Community

WunderPhotos

Upload Photos

1,779,529 Fotos hochgeladen!

WunderBlogs® & News

Nearby

Luftqualität

  Luftqualität LQ Index Schadstoff
Not available.

Schneehöhe

Station Depth Höhe

Erdbebenaktivität

Stadt Distance Mag. Time & Date
Minimum magnitude displayed is 2.5.

küstennahe Wassertemperaturen

Ort Temperatur

Wetterstationen in der Umgebung